Time;durP1;ratioP1;P1;durP2;ratioP2;P2;SDS_P1;SDS_P2;PMS_P1;PMS_P2;Temp;Humidity;BMP_temperature;BMP_pressure;BME280_temperature;BME280_humidity;BME280_pressure;Samples;Min_cycle;Max_cycle;Signal;HPM_P1;HPM_P2
2023/07/06 00:01:48;;;;;;;6.22;3.75;;;28.30;55.40;;;;;;5110783;28;20034;-78
2023/07/06 00:04:15;;;;;;;5.03;3.28;;;28.30;55.40;;;;;;5112194;28;20172;-79
2023/07/06 00:06:41;;;;;;;7.50;3.65;;;28.20;55.40;;;;;;5110504;28;20028;-78
2023/07/06 00:09:09;;;;;;;3.50;3.03;;;28.40;55.40;;;;;;5112193;28;20032;-79
2023/07/06 00:11:39;;;;;;;4.50;3.10;;;28.40;55.40;;;;;;5111942;28;20483;-79
2023/07/06 00:14:07;;;;;;;4.03;3.05;;;28.20;55.50;;;;;;5110693;28;20436;-78
2023/07/06 00:16:34;;;;;;;6.07;3.33;;;28.30;55.60;;;;;;5111801;28;20092;-79
2023/07/06 00:19:00;;;;;;;4.45;3.42;;;28.30;55.60;;;;;;5111882;28;20027;-79
2023/07/06 00:21:29;;;;;;;8.95;3.92;;;28.30;55.60;;;;;;5111600;28;20031;-79
2023/07/06 00:23:57;;;;;;;3.83;3.30;;;28.30;55.60;;;;;;5111723;28;20040;-79
2023/07/06 00:26:23;;;;;;;5.88;3.92;;;28.30;55.60;;;;;;5111753;28;20127;-79
2023/07/06 00:28:49;;;;;;;4.32;3.00;;;28.30;55.60;;;;;;5110788;28;20028;-79
2023/07/06 00:31:32;;;;;;;4.93;3.13;;;28.40;55.60;;;;;;5111853;28;20036;-79
2023/07/06 00:34:07;;;;;;;3.15;2.67;;;28.30;55.60;;;;;;5111584;28;20041;-79
2023/07/06 00:36:35;;;;;;;8.00;3.72;;;28.30;55.60;;;;;;5110556;28;20100;-77
2023/07/06 00:39:01;;;;;;;6.53;3.15;;;28.40;55.60;;;;;;5111515;28;20043;-79
2023/07/06 00:41:28;;;;;;;8.73;3.45;;;28.30;55.60;;;;;;5111829;28;20039;-79
2023/07/06 00:43:56;;;;;;;7.40;4.25;;;28.40;55.60;;;;;;5111652;28;20442;-79
2023/07/06 00:46:25;;;;;;;4.85;3.90;;;28.30;55.50;;;;;;5111371;28;20119;-79
2023/07/06 00:48:54;;;;;;;3.25;2.92;;;28.40;55.50;;;;;;5111784;28;20055;-79
2023/07/06 00:51:32;;;;;;;3.10;2.80;;;28.40;55.40;;;;;;5110340;28;20376;-79
2023/07/06 00:54:04;;;;;;;4.43;3.10;;;28.50;55.40;;;;;;5110417;28;20421;-79
2023/07/06 00:56:39;;;;;;;3.77;3.00;;;28.40;55.40;;;;;;5111230;28;20039;-79
2023/07/06 00:59:09;;;;;;;3.65;3.28;;;28.50;55.40;;;;;;5110061;28;20042;-79
2023/07/06 01:01:41;;;;;;;3.80;3.13;;;28.40;55.30;;;;;;5111695;28;20114;-79
2023/07/06 01:04:11;;;;;;;3.53;3.22;;;28.50;55.30;;;;;;5111504;28;20063;-78
2023/07/06 01:06:42;;;;;;;4.18;3.40;;;28.50;55.30;;;;;;5111476;28;20050;-79
2023/07/06 01:09:10;;;;;;;3.92;3.53;;;28.50;55.30;;;;;;5111334;28;20040;-79
2023/07/06 01:11:38;;;;;;;5.38;4.32;;;28.50;55.30;;;;;;5110202;28;20032;-79
2023/07/06 01:14:04;;;;;;;4.35;3.60;;;28.50;55.20;;;;;;5110199;28;20031;-79
2023/07/06 01:16:39;;;;;;;3.80;2.42;;;28.50;55.20;;;;;;5111188;28;20491;-78
2023/07/06 01:19:25;;;;;;;4.40;2.90;;;28.60;55.20;;;;;;5111314;28;20065;-79
2023/07/06 01:22:09;;;;;;;3.78;2.80;;;28.50;55.10;;;;;;5111098;28;20126;-79
2023/07/06 01:24:38;;;;;;;4.18;3.05;;;28.60;55.10;;;;;;5115222;28;20081;-79
2023/07/06 01:27:42;;;;;;;4.05;3.53;;;28.60;55.10;;;;;;5113721;28;20039;-79
2023/07/06 01:30:14;;;;;;;7.57;3.13;;;28.60;55.10;;;;;;5113589;28;20122;-79
2023/07/06 01:32:48;;;;;;;2.93;2.53;;;28.60;55.10;;;;;;5113437;28;20028;-79
2023/07/06 01:35:37;;;;;;;5.70;2.95;;;28.60;55.00;;;;;;5114730;28;20038;-79
2023/07/06 01:38:04;;;;;;;6.38;3.03;;;28.70;55.00;;;;;;5113388;28;20031;-79
2023/07/06 01:40:30;;;;;;;5.50;4.25;;;28.70;55.00;;;;;;5114540;28;20034;-79
2023/07/06 01:42:59;;;;;;;5.82;4.45;;;28.60;55.00;;;;;;5114667;28;20046;-79
2023/07/06 01:45:28;;;;;;;6.47;4.38;;;28.50;55.00;;;;;;5114324;28;20130;-79
2023/07/06 01:48:05;;;;;;;7.30;4.35;;;28.60;54.90;;;;;;5114413;28;20112;-79
2023/07/06 01:50:40;;;;;;;7.00;3.83;;;28.70;54.90;;;;;;5114369;28;20073;-79
2023/07/06 01:53:38;;;;;;;7.00;3.97;;;28.70;54.90;;;;;;5112885;28;20042;-79
2023/07/06 01:56:10;;;;;;;6.10;4.45;;;28.70;54.80;;;;;;5112756;28;20063;-78
2023/07/06 01:58:43;;;;;;;8.15;4.45;;;28.70;54.80;;;;;;5112857;28;20031;-79
2023/07/06 02:01:15;;;;;;;10.45;4.20;;;28.70;54.80;;;;;;5112681;28;20392;-78
2023/07/06 02:03:41;;;;;;;5.72;3.90;;;28.60;54.80;;;;;;5114242;28;20119;-79
2023/07/06 02:06:08;;;;;;;4.50;3.25;;;28.60;54.70;;;;;;5114040;28;20057;-79
2023/07/06 02:08:41;;;;;;;3.95;3.20;;;28.60;54.70;;;;;;5114122;28;20080;-79
2023/07/06 02:11:19;;;;;;;6.35;3.65;;;28.60;54.80;;;;;;5113073;28;20039;-79
2023/07/06 02:13:45;;;;;;;8.45;3.85;;;28.70;54.80;;;;;;5112540;28;20054;-78
2023/07/06 02:16:11;;;;;;;5.03;3.13;;;28.60;54.80;;;;;;5095595;28;20107;-79
2023/07/06 02:18:37;;;;;;;5.40;4.10;;;28.60;54.80;;;;;;5112845;28;20130;-79
2023/07/06 02:21:04;;;;;;;6.72;3.10;;;28.60;54.80;;;;;;5114172;28;20020;-79
2023/07/06 02:23:30;;;;;;;4.75;4.03;;;28.50;54.80;;;;;;5114087;27;20035;-79
2023/07/06 02:25:56;;;;;;;4.15;3.50;;;28.60;54.80;;;;;;5114242;28;20147;-79
2023/07/06 02:28:23;;;;;;;6.50;3.05;;;28.50;54.80;;;;;;5112380;28;20038;-79
2023/07/06 02:30:50;;;;;;;5.20;3.00;;;28.40;54.90;;;;;;5113725;27;20400;-79
2023/07/06 02:33:19;;;;;;;8.00;3.38;;;28.60;54.90;;;;;;5112918;27;20039;-79
2023/07/06 02:35:46;;;;;;;5.00;3.08;;;28.60;54.90;;;;;;5112824;28;20027;-79
2023/07/06 02:38:17;;;;;;;4.15;3.70;;;28.60;54.90;;;;;;5112231;28;20039;-79
2023/07/06 02:40:43;;;;;;;7.00;3.67;;;28.60;54.90;;;;;;5112601;28;20095;-79
2023/07/06 02:43:09;;;;;;;6.95;3.22;;;28.40;54.90;;;;;;5113487;28;20059;-79
2023/07/06 02:45:36;;;;;;;5.05;3.55;;;28.50;54.90;;;;;;5113591;28;20464;-79
2023/07/06 02:48:04;;;;;;;3.95;3.38;;;28.60;54.90;;;;;;5112225;28;20083;-79
2023/07/06 02:50:31;;;;;;;3.58;3.10;;;28.60;54.90;;;;;;5112095;28;20031;-79
2023/07/06 02:52:58;;;;;;;4.47;3.47;;;28.60;54.90;;;;;;5112017;28;20112;-79
2023/07/06 02:55:26;;;;;;;3.88;3.53;;;28.60;54.80;;;;;;5111733;28;20380;-79
2023/07/06 02:57:52;;;;;;;5.05;4.10;;;28.60;54.80;;;;;;5111758;28;20578;-79
2023/07/06 03:00:18;;;;;;;6.70;3.97;;;28.60;54.80;;;;;;5130741;27;20043;-78
2023/07/06 03:02:48;;;;;;;5.28;4.38;;;28.50;54.80;;;;;;5131277;27;20407;-79
2023/07/06 03:05:14;;;;;;;4.82;3.70;;;28.60;54.80;;;;;;5131055;27;20039;-79
2023/07/06 03:07:41;;;;;;;10.90;4.18;;;28.50;54.80;;;;;;5096852;27;20432;-79
2023/07/06 03:10:08;;;;;;;5.78;4.40;;;28.60;54.80;;;;;;5130876;27;20043;-79
2023/07/06 03:12:39;;;;;;;3.90;2.95;;;28.50;54.80;;;;;;5130703;27;20049;-78
2023/07/06 03:15:07;;;;;;;4.93;3.20;;;28.70;54.80;;;;;;5113700;27;20078;-79
2023/07/06 03:17:33;;;;;;;6.10;3.45;;;28.60;54.70;;;;;;5130593;27;20035;-79
2023/07/06 03:19:59;;;;;;;4.15;3.38;;;28.60;54.70;;;;;;5130899;27;20107;-79
2023/07/06 03:22:25;;;;;;;5.68;3.45;;;28.50;54.70;;;;;;5130868;27;20403;-79
2023/07/06 03:24:51;;;;;;;4.13;3.17;;;28.50;54.70;;;;;;5113596;27;20067;-79
2023/07/06 03:27:17;;;;;;;7.10;3.67;;;28.50;54.70;;;;;;5130699;27;20442;-79
2023/07/06 03:29:43;;;;;;;4.07;3.33;;;28.50;54.70;;;;;;5113748;27;20031;-78
2023/07/06 03:32:09;;;;;;;4.63;3.60;;;28.60;54.70;;;;;;5110975;28;20407;-79
2023/07/06 03:34:35;;;;;;;6.68;4.18;;;28.50;54.70;;;;;;5111721;28;20039;-79
2023/07/06 03:37:05;;;;;;;5.00;3.58;;;28.60;54.70;;;;;;5110882;28;20032;-79
2023/07/06 03:39:31;;;;;;;3.78;3.22;;;28.50;54.80;;;;;;5111225;28;20043;-79
2023/07/06 03:41:57;;;;;;;6.95;4.30;;;28.60;54.80;;;;;;5112439;28;20468;-79
2023/07/06 03:44:24;;;;;;;4.32;3.80;;;28.40;54.80;;;;;;5110650;28;20048;-79
2023/07/06 03:46:50;;;;;;;6.25;3.50;;;28.50;54.80;;;;;;5112337;28;20077;-79
2023/07/06 03:49:16;;;;;;;7.40;4.40;;;28.50;54.90;;;;;;5112121;28;20395;-79
2023/07/06 03:51:46;;;;;;;6.45;4.30;;;28.40;54.90;;;;;;5112034;28;20452;-79
2023/07/06 03:54:12;;;;;;;7.05;4.03;;;28.50;54.80;;;;;;5111101;28;20028;-79
2023/07/06 03:56:38;;;;;;;7.40;4.22;;;28.50;54.80;;;;;;5112047;28;20024;-78
2023/07/06 03:59:05;;;;;;;6.70;5.13;;;28.50;54.80;;;;;;5110869;28;20035;-78
2023/07/06 04:01:32;;;;;;;8.43;4.60;;;28.60;54.80;;;;;;5111032;28;20038;-78
2023/07/06 04:03:58;;;;;;;8.30;4.93;;;28.50;54.80;;;;;;5112067;28;20039;-79
2023/07/06 04:06:26;;;;;;;10.05;5.38;;;28.40;54.80;;;;;;5110542;28;20039;-79
2023/07/06 04:08:54;;;;;;;10.43;5.65;;;28.50;54.80;;;;;;5112088;28;20502;-79
2023/07/06 04:11:20;;;;;;;9.93;5.80;;;28.50;54.80;;;;;;5109655;28;20055;-78
2023/07/06 04:13:46;;;;;;;6.18;4.90;;;28.60;54.80;;;;;;5112065;28;20031;-79
2023/07/06 04:16:16;;;;;;;6.35;5.43;;;28.60;54.80;;;;;;5111895;28;20059;-78
2023/07/06 04:18:44;;;;;;;7.60;5.82;;;28.50;54.70;;;;;;5111556;28;20046;-79
2023/07/06 04:21:18;;;;;;;4.93;4.00;;;28.50;54.70;;;;;;5111977;28;20116;-79
2023/07/06 04:23:47;;;;;;;8.38;5.32;;;28.20;54.70;;;;;;5111976;28;20028;-79
2023/07/06 04:26:17;;;;;;;10.02;5.90;;;28.60;54.70;;;;;;5111636;28;20078;-78
2023/07/06 04:28:44;;;;;;;8.55;5.47;;;28.50;54.70;;;;;;5111922;28;20028;-79
2023/07/06 04:31:10;;;;;;;10.73;5.78;;;28.50;54.70;;;;;;5111657;28;20034;-78
2023/07/06 04:33:37;;;;;;;8.15;5.70;;;28.60;54.70;;;;;;5112140;28;20070;-78
2023/07/06 04:36:03;;;;;;;9.27;6.30;;;28.60;54.70;;;;;;5111858;28;20073;-78
2023/07/06 04:38:29;;;;;;;7.60;5.03;;;28.50;54.70;;;;;;5110296;28;20127;-78
2023/07/06 04:40:56;;;;;;;6.82;5.78;;;28.50;54.70;;;;;;5111826;28;20161;-79
2023/07/06 04:43:24;;;;;;;8.20;5.70;;;28.30;54.70;;;;;;5110171;28;20435;-78
2023/07/06 04:45:50;;;;;;;7.88;5.60;;;28.60;54.70;;;;;;5111515;28;20492;-78
2023/07/06 04:48:16;;;;;;;8.18;5.38;;;28.30;54.70;;;;;;5111454;28;20039;-79
2023/07/06 04:50:43;;;;;;;10.65;5.63;;;28.60;54.80;;;;;;5111832;28;20531;-78
2023/07/06 04:53:09;;;;;;;7.95;5.88;;;28.40;54.80;;;;;;5111571;28;20040;-78
2023/07/06 04:55:36;;;;;;;10.48;6.20;;;28.50;54.80;;;;;;5111550;28;20031;-78
2023/07/06 04:58:05;;;;;;;7.32;5.07;;;28.50;54.80;;;;;;5114696;28;20126;-78
2023/07/06 05:00:34;;;;;;;13.85;6.30;;;28.50;54.80;;;;;;5115386;28;20035;-79
2023/07/06 05:03:02;;;;;;;9.60;6.13;;;28.60;54.80;;;;;;5115765;28;20031;-79
2023/07/06 05:05:34;;;;;;;12.10;5.97;;;28.60;54.80;;;;;;5115552;28;20032;-79
2023/07/06 05:08:00;;;;;;;7.45;5.72;;;28.60;54.80;;;;;;5114173;28;20123;-78
2023/07/06 05:10:27;;;;;;;9.80;5.85;;;28.60;54.80;;;;;;5115294;28;20107;-79
2023/07/06 05:12:55;;;;;;;9.15;6.07;;;28.60;54.80;;;;;;5115465;28;20116;-78
2023/07/06 05:15:22;;;;;;;9.57;5.78;;;28.70;54.70;;;;;;5115186;28;20031;-79
2023/07/06 05:17:48;;;;;;;10.65;6.75;;;28.60;54.80;;;;;;5113984;28;20044;-78
2023/07/06 05:20:14;;;;;;;8.27;6.60;;;28.60;54.70;;;;;;5115310;28;20032;-78
2023/07/06 05:22:48;;;;;;;11.00;6.47;;;28.50;54.70;;;;;;5115193;28;20059;-78
2023/07/06 05:25:18;;;;;;;10.45;6.25;;;28.60;54.70;;;;;;5115104;28;20054;-78
2023/07/06 05:27:45;;;;;;;9.48;5.80;;;28.70;54.70;;;;;;5114615;28;20043;-78
2023/07/06 05:30:12;;;;;;;10.18;3.72;;;28.60;54.70;;;;;;5115090;28;20078;-78
2023/07/06 05:32:39;;;;;;;11.38;6.38;;;28.50;54.70;;;;;;5114710;28;20031;-78
2023/07/06 05:35:06;;;;;;;9.57;5.88;;;28.50;54.70;;;;;;5114882;28;20463;-78
2023/07/06 05:37:33;;;;;;;6.30;4.88;;;28.50;54.70;;;;;;5114613;28;20063;-78
2023/07/06 05:40:02;;;;;;;2.78;2.55;;;28.60;54.70;;;;;;5113435;28;20072;-78
2023/07/06 05:42:28;;;;;;;9.40;6.38;;;28.40;54.70;;;;;;5113316;28;20046;-78
2023/07/06 05:44:54;;;;;;;10.90;6.03;;;28.60;54.70;;;;;;5114720;27;20519;-78
2023/07/06 05:47:21;;;;;;;5.65;4.63;;;28.50;54.70;;;;;;5113235;27;20138;-78
2023/07/06 05:49:46;;;;;;;6.00;4.85;;;28.40;54.80;;;;;;5114751;28;20027;-78
2023/07/06 05:52:13;;;;;;;3.70;3.08;;;28.60;54.80;;;;;;5114743;28;20042;-78
2023/07/06 05:54:39;;;;;;;2.60;2.38;;;28.60;54.80;;;;;;5114478;28;20031;-78
2023/07/06 05:57:08;;;;;;;1.98;1.73;;;28.40;54.80;;;;;;5113281;28;20047;-78
2023/07/06 05:59:36;;;;;;;6.55;4.50;;;28.50;54.80;;;;;;5114661;28;20045;-78
2023/07/06 06:02:04;;;;;;;8.77;6.90;;;28.50;54.90;;;;;;5112691;28;20119;-78
2023/07/06 06:04:30;;;;;;;3.22;2.92;;;28.60;54.80;;;;;;5114393;28;20052;-78
2023/07/06 06:06:57;;;;;;;3.13;2.08;;;28.30;54.80;;;;;;5095958;28;20539;-78
2023/07/06 06:09:25;;;;;;;8.27;5.82;;;28.50;54.80;;;;;;5112406;28;20066;-78
2023/07/06 06:11:52;;;;;;;2.08;1.70;;;28.50;54.90;;;;;;5114301;28;20042;-78
2023/07/06 06:14:18;;;;;;;2.58;2.35;;;28.50;54.80;;;;;;5113847;28;20038;-78
2023/07/06 06:16:44;;;;;;;2.17;1.92;;;28.50;54.80;;;;;;5114356;28;20040;-78
2023/07/06 06:19:10;;;;;;;1.70;1.60;;;28.50;54.80;;;;;;5113863;28;20035;-78
2023/07/06 06:21:36;;;;;;;1.67;1.50;;;28.60;54.80;;;;;;5113912;28;20040;-78
2023/07/06 06:24:08;;;;;;;2.05;1.88;;;28.60;54.80;;;;;;5111580;28;20047;-78
2023/07/06 06:26:34;;;;;;;7.00;5.35;;;28.60;54.80;;;;;;5113971;28;20061;-78
2023/07/06 06:29:01;;;;;;;2.50;2.30;;;28.60;54.80;;;;;;5113870;28;20031;-78
2023/07/06 06:31:27;;;;;;;1.40;1.30;;;28.60;54.80;;;;;;5113986;28;20032;-79
2023/07/06 06:33:54;;;;;;;6.50;4.47;;;28.50;54.80;;;;;;5113782;28;20556;-78
2023/07/06 06:36:20;;;;;;;1.85;1.75;;;28.50;54.80;;;;;;5113695;28;20080;-78
2023/07/06 06:38:46;;;;;;;9.57;6.40;;;28.40;54.80;;;;;;5113453;28;20032;-78
2023/07/06 06:41:12;;;;;;;2.50;2.30;;;28.50;54.90;;;;;;5113843;28;20163;-78
2023/07/06 06:43:39;;;;;;;1.38;1.27;;;28.50;54.80;;;;;;5113554;28;20110;-79
2023/07/06 06:46:06;;;;;;;8.13;5.47;;;28.40;54.80;;;;;;5113428;28;20122;-78
2023/07/06 06:48:33;;;;;;;5.38;4.15;;;28.40;54.80;;;;;;5113594;28;20042;-78
2023/07/06 06:51:00;;;;;;;9.70;7.47;;;28.50;54.80;;;;;;5113439;28;20023;-78
2023/07/06 06:53:26;;;;;;;2.17;1.73;;;28.60;54.90;;;;;;5113376;28;20467;-78
2023/07/06 06:55:53;;;;;;;1.90;1.70;;;28.40;54.90;;;;;;5113206;28;20490;-78
2023/07/06 06:58:20;;;;;;;1.70;1.60;;;28.30;54.90;;;;;;5113145;28;20050;-78
2023/07/06 07:00:47;;;;;;;2.20;1.98;;;28.40;55.00;;;;;;5113273;28;20077;-78
2023/07/06 07:03:14;;;;;;;1.83;1.73;;;28.40;55.00;;;;;;5113120;28;20387;-78
2023/07/06 07:05:41;;;;;;;2.40;1.60;;;28.40;55.00;;;;;;5113170;28;20038;-78
2023/07/06 07:08:07;;;;;;;1.45;1.35;;;28.60;55.00;;;;;;5113176;28;20043;-78
2023/07/06 07:10:33;;;;;;;1.83;1.67;;;28.40;55.00;;;;;;5113094;28;20034;-78
2023/07/06 07:12:59;;;;;;;1.40;1.30;;;28.40;55.00;;;;;;5112825;28;20483;-78
2023/07/06 07:15:25;;;;;;;1.90;1.73;;;28.50;55.00;;;;;;5112985;28;20471;-78
2023/07/06 07:17:51;;;;;;;1.50;1.40;;;28.60;55.00;;;;;;5112567;28;20063;-78
2023/07/06 07:20:20;;;;;;;6.00;3.75;;;28.40;55.00;;;;;;5112331;28;20039;-78
2023/07/06 07:22:46;;;;;;;1.42;1.33;;;28.50;55.00;;;;;;5113018;28;20067;-78
2023/07/06 07:25:13;;;;;;;3.40;2.85;;;28.60;55.00;;;;;;5110206;28;20047;-78
2023/07/06 07:27:39;;;;;;;1.33;1.23;;;28.60;55.00;;;;;;5112651;28;20036;-78
2023/07/06 07:30:06;;;;;;;1.73;1.63;;;28.50;55.00;;;;;;5112469;28;20032;-78
2023/07/06 07:32:33;;;;;;;2.17;1.42;;;28.50;54.90;;;;;;5112631;28;20085;-78
2023/07/06 07:34:59;;;;;;;1.67;1.58;;;28.60;55.00;;;;;;5112503;28;20039;-78
2023/07/06 07:37:25;;;;;;;1.63;1.52;;;28.30;55.00;;;;;;5112431;28;20066;-78
2023/07/06 07:39:51;;;;;;;6.72;4.60;;;28.60;55.00;;;;;;5112377;28;20162;-78
2023/07/06 07:42:18;;;;;;;1.90;1.73;;;28.40;55.00;;;;;;5112577;28;20514;-78
2023/07/06 07:44:44;;;;;;;2.55;2.00;;;28.50;54.90;;;;;;5112162;28;20043;-78
2023/07/06 07:47:18;;;;;;;3.75;2.00;;;28.40;55.00;;;;;;5112318;28;20443;-78
2023/07/06 07:49:47;;;;;;;3.00;2.70;;;28.40;55.00;;;;;;5112441;27;20031;-78
2023/07/06 07:52:14;;;;;;;1.60;1.50;;;28.40;55.00;;;;;;5112260;28;20450;-78
2023/07/06 07:54:42;;;;;;;1.58;1.38;;;28.50;55.00;;;;;;5112014;28;20035;-78
2023/07/06 07:57:08;;;;;;;2.47;2.15;;;28.40;55.00;;;;;;5111983;28;20024;-78
2023/07/06 07:59:34;;;;;;;3.45;3.15;;;28.50;55.00;;;;;;5111803;28;20037;-78
2023/07/06 08:02:00;;;;;;;3.15;2.10;;;28.50;55.00;;;;;;5112131;28;20053;-78
2023/07/06 08:04:26;;;;;;;1.88;1.50;;;28.50;55.00;;;;;;5112255;28;20027;-78
2023/07/06 08:06:53;;;;;;;4.30;3.63;;;28.50;55.10;;;;;;5112045;28;20104;-80
2023/07/06 08:09:19;;;;;;;4.55;3.00;;;28.40;55.10;;;;;;5112106;28;20175;-78
2023/07/06 08:11:47;;;;;;;9.23;5.68;;;28.40;55.10;;;;;;5111993;28;20028;-78
2023/07/06 08:14:31;;;;;;;2.58;2.28;;;28.50;55.10;;;;;;5093529;28;20032;-77
2023/07/06 08:16:58;;;;;;;4.32;3.92;;;28.60;55.10;;;;;;5110715;28;20031;-78
2023/07/06 08:19:24;;;;;;;6.80;4.47;;;28.50;55.10;;;;;;5111827;28;20395;-78
2023/07/06 08:21:50;;;;;;;1.90;1.80;;;28.40;55.10;;;;;;5111914;28;20039;-78
2023/07/06 08:24:16;;;;;;;1.70;1.60;;;28.40;55.10;;;;;;5126726;27;20035;-78
2023/07/06 08:26:42;;;;;;;5.53;4.97;;;28.50;55.10;;;;;;5111719;28;20387;-78
2023/07/06 08:29:08;;;;;;;3.65;2.40;;;28.50;55.10;;;;;;5111507;28;20039;-78
2023/07/06 08:31:35;;;;;;;2.40;2.20;;;28.50;55.10;;;;;;5112974;28;20028;-78
2023/07/06 08:34:01;;;;;;;2.97;2.40;;;28.60;55.00;;;;;;5116049;28;20066;-78
2023/07/06 08:36:27;;;;;;;2.90;2.70;;;28.50;55.00;;;;;;5116114;28;20035;-78
2023/07/06 08:38:54;;;;;;;2.53;2.20;;;28.50;55.00;;;;;;5115642;27;20114;-78
2023/07/06 08:41:30;;;;;;;1.80;1.70;;;28.40;55.00;;;;;;5116050;28;20376;-78
2023/07/06 08:44:01;;;;;;;2.10;1.90;;;28.60;55.00;;;;;;5115935;28;20031;-78
2023/07/06 08:46:34;;;;;;;2.95;1.70;;;28.40;55.00;;;;;;5116113;28;20040;-78
2023/07/06 08:49:01;;;;;;;1.88;1.70;;;28.50;55.00;;;;;;5113999;28;20035;-78
2023/07/06 08:51:34;;;;;;;2.13;1.95;;;28.40;55.00;;;;;;5115585;28;20032;-78
2023/07/06 08:54:04;;;;;;;1.75;1.60;;;28.40;55.00;;;;;;5114177;28;20091;-78
2023/07/06 08:56:36;;;;;;;3.75;2.80;;;28.50;55.00;;;;;;5115752;28;20106;-78
2023/07/06 08:59:10;;;;;;;2.28;2.03;;;28.50;55.00;;;;;;5115119;28;20494;-78
2023/07/06 09:01:37;;;;;;;4.60;3.60;;;28.40;55.00;;;;;;5115361;28;20080;-78
2023/07/06 09:04:15;;;;;;;3.17;2.20;;;28.40;55.10;;;;;;5113821;28;20035;-78
2023/07/06 09:06:47;;;;;;;2.28;1.92;;;28.50;55.10;;;;;;5115484;28;20055;-78
2023/07/06 09:09:13;;;;;;;2.23;1.97;;;28.50;55.10;;;;;;5115502;28;20035;-78
2023/07/06 09:11:44;;;;;;;2.20;1.85;;;28.50;55.10;;;;;;5115247;28;20065;-78
2023/07/06 09:14:13;;;;;;;4.55;2.85;;;28.40;55.10;;;;;;5115129;28;20039;-78
2023/07/06 09:16:55;;;;;;;2.97;2.42;;;28.50;55.10;;;;;;5115031;28;20028;-78
2023/07/06 09:19:24;;;;;;;2.53;1.73;;;28.50;55.10;;;;;;5114985;28;20595;-78
2023/07/06 09:21:56;;;;;;;1.90;1.73;;;28.40;55.10;;;;;;5115381;28;20035;-79
2023/07/06 09:24:27;;;;;;;2.00;1.55;;;28.50;55.10;;;;;;5115248;28;20024;-77
2023/07/06 09:27:00;;;;;;;5.60;4.13;;;28.40;55.10;;;;;;5115110;28;20028;-78
2023/07/06 09:29:32;;;;;;;2.03;1.83;;;28.50;55.10;;;;;;5114800;28;20486;-78
2023/07/06 09:32:16;;;;;;;2.17;1.52;;;28.60;55.10;;;;;;5115268;28;20089;-78
2023/07/06 09:34:45;;;;;;;1.83;1.70;;;28.40;55.10;;;;;;5114843;28;20043;-78
2023/07/06 09:37:13;;;;;;;3.25;2.95;;;28.50;55.10;;;;;;5113778;28;20445;-78
2023/07/06 09:39:40;;;;;;;1.65;1.52;;;28.60;55.10;;;;;;5114360;28;20035;-78
2023/07/06 09:42:12;;;;;;;3.92;3.58;;;28.40;55.10;;;;;;5112935;28;20455;-78
2023/07/06 09:44:39;;;;;;;1.98;1.88;;;28.40;55.10;;;;;;5112983;28;20112;-78
2023/07/06 09:47:11;;;;;;;1.42;1.33;;;28.50;55.10;;;;;;5113341;28;20142;-78
2023/07/06 09:49:49;;;;;;;;;;;28.40;55.10;;;;;;5113540;28;20027;-78
2023/07/06 09:52:17;;;;;;;2.08;1.92;;;28.40;55.10;;;;;;5129411;27;20352;-78
2023/07/06 09:55:13;;;;;;;2.10;1.95;;;28.40;55.10;;;;;;5114661;28;20139;-78
2023/07/06 09:57:40;;;;;;;1.95;1.75;;;28.30;55.10;;;;;;5114486;28;20040;-78
2023/07/06 10:00:17;;;;;;;1.98;1.88;;;28.50;55.10;;;;;;5114342;28;20034;-78
2023/07/06 10:03:07;;;;;;;3.75;3.42;;;28.40;55.10;;;;;;5114203;28;20035;-78
2023/07/06 10:06:07;;;;;;;4.63;4.18;;;28.40;55.10;;;;;;5114460;28;20031;-78
2023/07/06 10:08:51;;;;;;;2.00;1.90;;;28.40;55.10;;;;;;5112831;28;20040;-78
2023/07/06 10:11:37;;;;;;;2.05;1.85;;;28.40;55.10;;;;;;5096091;28;20120;-78
2023/07/06 10:14:29;;;;;;;1.70;1.60;;;28.40;55.10;;;;;;5070993;28;20057;-78
2023/07/06 10:17:09;;;;;;;1.55;1.45;;;28.40;55.20;;;;;;5071040;28;20127;-77
2023/07/06 10:19:54;;;;;;;1.98;1.77;;;28.50;55.20;;;;;;5070635;28;20092;-78
2023/07/06 10:22:41;;;;;;;1.98;1.77;;;28.40;55.20;;;;;;5071069;28;20041;-77
2023/07/06 10:25:22;;;;;;;3.92;2.20;;;28.40;55.20;;;;;;5070670;28;20082;-78
2023/07/06 10:27:56;;;;;;;1.95;1.85;;;28.40;55.20;;;;;;5070823;28;20047;-78
2023/07/06 10:30:31;;;;;;;2.72;2.05;;;28.50;55.20;;;;;;5070528;28;20036;-78
2023/07/06 10:33:02;;;;;;;2.15;1.95;;;28.40;55.20;;;;;;5070772;28;20515;-78
2023/07/06 10:35:36;;;;;;;3.55;2.80;;;28.50;55.20;;;;;;5070665;28;20032;-78
2023/07/06 10:38:02;;;;;;;4.13;3.15;;;28.50;55.20;;;;;;5070465;28;20087;-77
2023/07/06 10:40:29;;;;;;;9.27;5.30;;;28.50;55.20;;;;;;5070534;28;20060;-77
2023/07/06 10:43:11;;;;;;;2.60;2.40;;;28.50;55.20;;;;;;5070367;28;20032;-78
2023/07/06 10:45:59;;;;;;;2.60;2.40;;;28.60;55.10;;;;;;5070279;28;20468;-77
2023/07/06 10:48:25;;;;;;;2.78;2.58;;;28.60;55.00;;;;;;5070166;28;20285;-77
2023/07/06 10:51:15;;;;;;;4.78;4.13;;;28.50;54.70;;;;;;5086315;28;20039;-78
2023/07/06 10:53:43;;;;;;;2.50;2.28;;;28.50;54.50;;;;;;5111734;28;20039;-78
2023/07/06 10:56:17;;;;;;;3.00;2.20;;;28.50;54.00;;;;;;5112776;28;20036;-78
2023/07/06 10:58:55;;;;;;;4.18;3.45;;;28.50;53.60;;;;;;5112936;28;20471;-77
2023/07/06 11:01:28;;;;;;;2.22;2.05;;;28.40;53.50;;;;;;5111830;28;20477;-77
2023/07/06 11:03:54;;;;;;;5.05;4.30;;;28.40;53.10;;;;;;5078348;28;20655;-78
2023/07/06 11:06:42;;;;;;;2.10;1.85;;;28.40;52.80;;;;;;5113395;28;20028;-78
2023/07/06 11:09:13;;;;;;;2.25;2.05;;;28.40;52.30;;;;;;5113129;28;20042;-78
2023/07/06 11:11:42;;;;;;;2.38;2.17;;;28.40;51.20;;;;;;5112934;28;20138;-78
2023/07/06 11:14:35;;;;;;;2.85;2.33;;;28.40;50.80;;;;;;5112751;28;20106;-78
2023/07/06 11:17:23;;;;;;;2.08;1.58;;;28.40;50.00;;;;;;5112968;28;20076;-77
2023/07/06 11:19:56;;;;;;;2.60;2.05;;;28.40;49.40;;;;;;5112644;28;20391;-78
2023/07/06 11:22:24;;;;;;;1.98;1.77;;;28.40;48.90;;;;;;5111631;28;20030;-78
2023/07/06 11:24:55;;;;;;;2.08;1.90;;;28.40;48.30;;;;;;5111663;28;20105;-78
2023/07/06 11:27:26;;;;;;;1.50;1.40;;;28.40;47.90;;;;;;5112623;28;20035;-78
2023/07/06 11:29:59;;;;;;;2.15;1.92;;;28.30;47.50;;;;;;5112830;28;20460;-78
2023/07/06 11:32:31;;;;;;;;;;;28.40;47.10;;;;;;5113259;28;20114;-78
2023/07/06 11:35:02;;;;;;;2.72;1.90;;;28.50;47.10;;;;;;5112469;28;19920;-78
2023/07/06 11:37:49;;;;;;;2.10;1.90;;;28.30;46.90;;;;;;5111260;28;20039;-77
2023/07/06 11:40:33;;;;;;;3.25;2.95;;;28.40;46.90;;;;;;5111109;28;20040;-77
2023/07/06 11:43:05;;;;;;;1.90;1.65;;;28.50;46.80;;;;;;5112424;28;20393;-77
2023/07/06 11:46:00;;;;;;;1.75;1.63;;;28.40;46.60;;;;;;5112596;28;20047;-77
2023/07/06 11:48:44;;;;;;;1.85;1.75;;;28.40;46.40;;;;;;5110108;28;20123;-77
2023/07/06 11:51:11;;;;;;;2.70;2.08;;;28.30;46.60;;;;;;5112242;28;20126;-78
2023/07/06 11:53:54;;;;;;;2.25;1.88;;;28.40;46.70;;;;;;5112432;28;20035;-78
2023/07/06 11:56:35;;;;;;;2.08;1.98;;;28.40;46.90;;;;;;5112119;28;20491;-78
2023/07/06 11:59:07;;;;;;;1.80;1.67;;;28.30;47.20;;;;;;5112009;28;20059;-77
2023/07/06 12:04:20;;;;;;;1.58;1.48;;;28.30;47.50;;;;;;5111902;28;20046;-77
2023/07/06 12:06:48;;;;;;;1.55;1.45;;;28.40;47.80;;;;;;5111986;28;20170;-77
2023/07/06 12:09:25;;;;;;;2.22;2.03;;;28.30;47.80;;;;;;5111977;28;20028;-77
2023/07/06 12:12:06;;;;;;;2.22;1.83;;;28.20;48.10;;;;;;5111841;28;20042;-78
2023/07/06 12:14:34;;;;;;;2.17;1.98;;;28.20;48.00;;;;;;5112108;28;20032;-77
2023/07/06 12:17:02;;;;;;;1.58;1.48;;;28.20;48.20;;;;;;5111925;28;20110;-77
2023/07/06 12:19:30;;;;;;;1.73;1.60;;;28.20;46.80;;;;;;5109492;28;20051;-77
2023/07/06 12:21:57;;;;;;;1.88;1.70;;;28.10;46.40;;;;;;5111899;28;20566;-78
2023/07/06 12:24:25;;;;;;;2.10;1.90;;;28.00;46.10;;;;;;5111782;28;20114;-77
2023/07/06 12:26:55;;;;;;;1.67;1.58;;;28.20;45.90;;;;;;5112215;28;20027;-77
2023/07/06 12:29:29;;;;;;;4.40;3.47;;;28.10;45.70;;;;;;5111938;28;20039;-77
2023/07/06 12:32:10;;;;;;;1.75;1.65;;;28.20;45.60;;;;;;5111696;28;20114;-77
2023/07/06 12:34:40;;;;;;;2.75;2.13;;;28.20;45.40;;;;;;5111572;28;20020;-77
2023/07/06 12:37:16;;;;;;;5.28;2.00;;;28.20;45.30;;;;;;5110609;28;20073;-78
2023/07/06 12:39:45;;;;;;;1.85;1.73;;;28.10;45.30;;;;;;5111352;28;20035;-77
2023/07/06 12:42:17;;;;;;;1.92;1.73;;;28.00;45.20;;;;;;5111582;28;20048;-77
2023/07/06 12:44:46;;;;;;;1.67;1.55;;;28.20;45.00;;;;;;5111383;28;20439;-77
2023/07/06 12:47:36;;;;;;;2.13;1.92;;;28.20;45.00;;;;;;5111538;28;20034;-77
2023/07/06 12:50:05;;;;;;;2.67;1.50;;;28.20;44.90;;;;;;5110334;28;20123;-78
2023/07/06 12:52:33;;;;;;;2.22;2.03;;;28.20;44.80;;;;;;5111732;28;20480;-78
2023/07/06 12:55:00;;;;;;;1.65;1.55;;;28.10;44.70;;;;;;5111496;28;20051;-77
2023/07/06 12:57:29;;;;;;;1.67;1.58;;;28.20;44.80;;;;;;5129539;28;20050;-77
2023/07/06 13:00:05;;;;;;;2.10;1.70;;;28.30;45.00;;;;;;5129374;28;20687;-77
2023/07/06 13:02:36;;;;;;;2.42;1.70;;;28.20;45.50;;;;;;5129387;28;20525;-78
2023/07/06 13:05:22;;;;;;;1.92;1.70;;;28.10;45.70;;;;;;5129482;28;20037;-78
2023/07/06 13:07:52;;;;;;;1.58;1.48;;;28.30;46.20;;;;;;5129460;28;20048;-78